Time;durP1;ratioP1;P1;durP2;ratioP2;P2;SDS_P1;SDS_P2;PMS_P1;PMS_P2;Temp;Humidity;BMP_temperature;BMP_pressure;BME280_temperature;BME280_humidity;BME280_pressure;Samples;Min_cycle;Max_cycle;Signal;HPM_P1;HPM_P2
2021/09/05 00:02:14;;;;;;;12.13;7.43;;;;;;;16.69;52.66;100274.16;6015200;23;20029;-81
2021/09/05 00:04:41;;;;;;;9.88;6.40;;;;;;;16.70;52.76;100264.38;6014890;23;20027;-81
2021/09/05 00:07:08;;;;;;;11.40;7.07;;;;;;;16.68;52.40;100267.16;6015142;23;20031;-81
2021/09/05 00:09:42;;;;;;;11.90;7.15;;;;;;;16.65;52.98;100267.38;6015515;23;20418;-81
2021/09/05 00:12:09;;;;;;;10.45;7.05;;;;;;;16.66;52.36;100269.06;6015185;23;20024;-81
2021/09/05 00:14:40;;;;;;;11.52;7.22;;;;;;;16.61;52.98;100273.88;6038383;23;20033;-81
2021/09/05 00:17:07;;;;;;;8.13;6.30;;;;;;;16.60;51.91;100272.19;6015002;23;20023;-81
2021/09/05 00:19:33;;;;;;;11.80;7.07;;;;;;;16.57;52.36;100275.06;6015381;23;20046;-81
2021/09/05 00:22:03;;;;;;;11.82;7.13;;;;;;;16.52;53.25;100270.09;6015412;23;20037;-81
2021/09/05 00:24:30;;;;;;;11.05;7.30;;;;;;;16.50;52.80;100269.34;6015188;23;20027;-81
2021/09/05 00:26:59;;;;;;;10.40;7.10;;;;;;;16.48;52.97;100276.59;6016295;23;20335;-81
2021/09/05 00:29:26;;;;;;;11.85;6.63;;;;;;;16.46;52.92;100268.75;6040123;23;20354;-81
2021/09/05 00:31:53;;;;;;;11.52;6.88;;;;;;;16.45;52.96;100269.69;6015727;23;20331;-81
2021/09/05 00:34:25;;;;;;;11.50;7.05;;;;;;;16.41;53.79;100268.25;6015259;23;20058;-81
2021/09/05 00:36:51;;;;;;;12.13;6.65;;;;;;;16.42;53.07;100259.31;6016024;23;20032;-81
2021/09/05 00:39:18;;;;;;;10.25;6.63;;;;;;;16.42;52.96;100264.63;6015171;23;20447;-81
2021/09/05 00:41:48;;;;;;;11.45;6.97;;;;;;;16.38;53.33;100279.91;6014911;23;20025;-81
2021/09/05 00:44:15;;;;;;;10.50;6.88;;;;;;;16.38;52.86;100271.13;6014524;23;20023;-82
2021/09/05 00:46:45;;;;;;;12.25;7.68;;;;;;;16.35;53.73;100271.34;6016244;23;20105;-82
2021/09/05 00:49:11;;;;;;;11.85;7.40;;;;;;;16.35;53.05;100276.66;6015134;23;20031;-81
2021/09/05 00:51:43;;;;;;;12.05;7.85;;;;;;;16.31;54.00;100280.50;6015469;23;20491;-81
2021/09/05 00:54:13;;;;;;;11.00;6.45;;;;;;;16.32;53.59;100276.88;6015277;23;20023;-81
2021/09/05 00:56:50;;;;;;;12.32;7.45;;;;;;;16.26;54.11;100273.69;6038481;23;20035;-81
2021/09/05 00:59:19;;;;;;;9.95;6.88;;;;;;;16.31;53.38;100272.50;6015243;23;20336;-81
2021/09/05 01:01:47;;;;;;;9.48;7.10;;;;;;;16.28;53.66;100278.91;6014978;23;20034;-81
2021/09/05 01:04:15;;;;;;;10.35;7.32;;;;;;;16.28;53.56;100290.38;6015293;23;20082;-81
2021/09/05 01:06:52;;;;;;;12.38;7.43;;;;;;;16.24;54.21;100285.41;6042043;23;20335;-81
2021/09/05 01:09:19;;;;;;;12.00;7.63;;;;;;;16.27;53.63;100288.66;6016992;23;20030;-81
2021/09/05 01:11:46;;;;;;;11.40;7.10;;;;;;;16.25;53.72;100285.28;6040822;23;20114;-81
2021/09/05 01:14:18;;;;;;;10.80;7.55;;;;;;;16.23;54.69;100289.03;6039586;23;20031;-81
2021/09/05 01:16:45;;;;;;;11.80;7.63;;;;;;;16.25;54.09;100289.75;6017135;23;20359;-81
2021/09/05 01:19:14;;;;;;;10.00;7.38;;;;;;;16.23;54.18;100289.84;6016925;23;20053;-81
2021/09/05 01:21:44;;;;;;;11.75;7.38;;;;;;;16.22;54.35;100292.66;6039910;23;20038;-81
2021/09/05 01:24:13;;;;;;;13.93;7.43;;;;;;;16.23;53.94;100294.34;6040049;23;20023;-81
2021/09/05 01:26:57;;;;;;;13.80;7.85;;;;;;;16.16;54.62;100285.97;6016859;23;20462;-81
2021/09/05 01:29:24;;;;;;;12.82;8.05;;;;;;;16.19;54.28;100283.09;6040676;23;20023;-81
2021/09/05 01:31:55;;;;;;;8.90;6.93;;;;;;;16.18;54.72;100292.00;6016569;23;20098;-81
2021/09/05 01:34:23;;;;;;;14.70;7.78;;;;;;;16.17;54.34;100285.00;6016262;23;20031;-81
2021/09/05 01:36:52;;;;;;;13.02;7.80;;;;;;;16.17;54.35;100290.31;6040312;23;20447;-81
2021/09/05 01:39:21;;;;;;;12.48;8.20;;;;;;;16.15;54.52;100281.63;6016766;23;20027;-81
2021/09/05 01:41:48;;;;;;;15.38;7.63;;;;;;;16.15;54.67;100282.44;6039838;23;20034;-81
2021/09/05 01:44:23;;;;;;;14.07;7.82;;;;;;;16.13;55.15;100288.84;6041857;23;20053;-81
2021/09/05 01:46:50;;;;;;;13.52;7.63;;;;;;;16.13;54.43;100291.50;6016666;23;20443;-81
2021/09/05 01:49:17;;;;;;;9.57;7.30;;;;;;;16.12;54.70;100292.44;6040531;23;20348;-81
2021/09/05 01:51:44;;;;;;;13.05;6.93;;;;;;;16.09;54.13;100288.22;6040590;23;20023;-81
2021/09/05 01:54:11;;;;;;;10.40;6.97;;;;;;;16.07;54.17;100286.63;6016216;23;20023;-81
2021/09/05 01:56:53;;;;;;;11.20;7.95;;;;;;;15.99;54.65;100288.00;6017384;23;20439;-81
2021/09/05 01:59:19;;;;;;;11.00;7.13;;;;;;;16.02;54.27;100286.94;6016692;23;20031;-81
2021/09/05 02:01:46;;;;;;;11.50;7.25;;;;;;;15.99;54.22;100290.69;6016131;23;20031;-81
2021/09/05 02:04:25;;;;;;;13.05;7.68;;;;;;;15.92;55.21;100285.88;6016451;23;20032;-81
2021/09/05 02:06:52;;;;;;;12.38;7.45;;;;;;;15.94;54.53;100287.50;6016224;23;20037;-81
2021/09/05 02:09:19;;;;;;;14.52;8.10;;;;;;;15.93;54.60;100288.44;6016291;23;20030;-81
2021/09/05 02:11:52;;;;;;;11.82;8.00;;;;;;;15.87;55.19;100295.03;6017386;23;20499;-81
2021/09/05 02:14:18;;;;;;;;;;;;;;;15.87;54.00;100292.38;6016648;23;20122;-81
2021/09/05 02:16:48;;;;;;;9.82;6.22;;;;;;;15.88;54.21;100296.72;6015985;23;19918;-81
2021/09/05 02:19:16;;;;;;;12.57;7.32;;;;;;;15.85;53.99;100291.63;6016468;23;20031;-81
2021/09/05 02:21:43;;;;;;;9.25;6.63;;;;;;;15.82;53.92;100299.81;6016342;23;20342;-81
2021/09/05 02:24:10;;;;;;;11.60;7.97;;;;;;;15.78;54.64;100306.28;6040985;23;20350;-81
2021/09/05 02:26:37;;;;;;;13.35;7.35;;;;;;;15.75;54.34;100302.03;6016222;23;20058;-81
2021/09/05 02:29:04;;;;;;;14.52;8.10;;;;;;;15.73;54.52;100306.59;6015790;23;20358;-81
2021/09/05 02:32:14;;;;;;;12.25;8.05;;;;;;;15.68;55.14;100310.53;6015189;23;20027;-81
2021/09/05 02:34:41;;;;;;;12.02;7.20;;;;;;;15.71;54.71;100305.88;6016282;23;20023;-81
2021/09/05 02:37:09;;;;;;;11.00;7.45;;;;;;;15.67;54.55;100301.75;6016305;23;20451;-81
2021/09/05 02:39:36;;;;;;;13.88;8.23;;;;;;;15.66;54.64;100300.03;6016800;23;20351;-81
2021/09/05 02:42:12;;;;;;;14.23;8.55;;;;;;;15.62;55.50;100301.19;6015678;23;20023;-81
2021/09/05 02:44:44;;;;;;;9.70;6.68;;;;;;;15.62;55.29;100302.06;6015703;23;20023;-81
2021/09/05 02:47:10;;;;;;;12.27;8.05;;;;;;;15.63;54.93;100300.25;6016118;23;20034;-81
2021/09/05 02:49:37;;;;;;;11.93;7.68;;;;;;;15.62;54.94;100303.84;6015996;23;20027;-81
2021/09/05 02:52:17;;;;;;;11.82;7.78;;;;;;;15.57;55.23;100303.31;6016577;23;20453;-81
2021/09/05 02:54:44;;;;;;;13.43;8.20;;;;;;;15.59;54.85;100304.06;6016126;23;20106;-81
2021/09/05 02:57:14;;;;;;;15.45;9.18;;;;;;;15.56;55.33;100307.78;5992150;23;20031;-81
2021/09/05 02:59:41;;;;;;;12.85;8.98;;;;;;;15.56;55.19;100313.09;6016161;23;20065;-81
2021/09/05 03:02:09;;;;;;;13.07;7.65;;;;;;;15.53;55.54;100304.47;6015790;23;20027;-81
2021/09/05 03:04:36;;;;;;;11.27;7.80;;;;;;;15.54;55.06;100308.81;6016158;23;20517;-81
2021/09/05 03:07:03;;;;;;;11.50;7.78;;;;;;;15.52;55.23;100308.97;6016123;23;20053;-81
2021/09/05 03:09:30;;;;;;;12.55;8.80;;;;;;;15.50;55.18;100294.94;6016083;23;20019;-81
2021/09/05 03:11:57;;;;;;;13.20;8.38;;;;;;;15.49;55.16;100304.72;6015572;23;20031;-81
2021/09/05 03:14:27;;;;;;;11.18;8.13;;;;;;;15.45;55.95;100305.88;6015498;23;20032;-81
2021/09/05 03:16:54;;;;;;;13.00;7.95;;;;;;;15.46;55.23;100304.06;6015566;23;20031;-81
2021/09/05 03:19:36;;;;;;;15.75;9.30;;;;;;;15.40;55.87;100300.03;6015505;23;20029;-81
2021/09/05 03:22:04;;;;;;;11.65;8.23;;;;;;;15.42;55.53;100299.91;6040631;23;20027;-81
2021/09/05 03:24:30;;;;;;;13.90;8.85;;;;;;;15.42;55.48;100299.91;6015587;23;20469;-81
2021/09/05 03:26:59;;;;;;;16.80;8.27;;;;;;;15.38;55.95;100304.59;6040578;23;20033;-81
2021/09/05 03:29:26;;;;;;;10.85;7.82;;;;;;;15.37;55.80;100308.22;6040270;23;20038;-81
2021/09/05 03:31:53;;;;;;;11.88;8.45;;;;;;;15.37;55.45;100308.22;6015759;23;20027;-81
2021/09/05 03:34:22;;;;;;;12.15;8.32;;;;;;;15.34;55.88;100311.94;6015830;23;20447;-81
2021/09/05 03:36:49;;;;;;;17.75;8.57;;;;;;;15.34;55.82;100309.28;6016077;23;20343;-82
2021/09/05 03:39:16;;;;;;;14.27;9.20;;;;;;;15.34;56.05;100303.09;6015683;23;20023;-81
2021/09/05 03:41:46;;;;;;;16.60;8.95;;;;;;;15.32;56.80;100308.50;6015703;23;20030;-81
2021/09/05 03:44:13;;;;;;;15.10;8.73;;;;;;;15.35;56.13;100310.09;6015498;23;20030;-81
2021/09/05 03:46:40;;;;;;;15.88;9.40;;;;;;;15.35;56.24;100310.09;6015342;23;20027;-82
2021/09/05 03:49:07;;;;;;;15.30;8.95;;;;;;;15.35;56.22;100312.75;6015716;23;20350;-81
2021/09/05 03:51:40;;;;;;;18.33;9.60;;;;;;;15.32;56.73;100305.00;6015622;23;20035;-81
2021/09/05 03:54:06;;;;;;;15.60;9.82;;;;;;;15.33;56.10;100302.25;6040527;23;20023;-81
2021/09/05 03:56:38;;;;;;;15.90;9.20;;;;;;;15.30;56.44;100301.63;6015219;23;20081;-81
2021/09/05 03:59:05;;;;;;;16.75;10.70;;;;;;;15.29;56.00;100300.75;6015843;23;20031;-81
2021/09/05 04:01:37;;;;;;;16.52;11.48;;;;;;;15.26;56.98;100300.13;6015051;23;20027;-82
2021/09/05 04:04:04;;;;;;;;;;;;;;;15.25;55.83;100299.25;6015981;23;20392;-81
2021/09/05 04:06:32;;;;;;;13.80;9.65;;;;;;;15.28;55.91;100301.72;6040778;23;19917;-81
2021/09/05 04:09:08;;;;;;;16.05;9.95;;;;;;;15.26;56.00;100300.13;6015399;23;20097;-81
2021/09/05 04:11:37;;;;;;;16.45;10.32;;;;;;;15.22;56.05;100299.50;6015034;23;20023;-81
2021/09/05 04:14:14;;;;;;;17.80;10.40;;;;;;;15.16;57.12;100294.59;6015051;23;20457;-81
2021/09/05 04:16:40;;;;;;;17.40;11.25;;;;;;;15.17;56.20;100301.63;6015483;23;20439;-81
2021/09/05 04:19:07;;;;;;;15.68;11.15;;;;;;;15.14;56.48;100293.88;6015664;23;20034;-80
2021/09/05 04:21:37;;;;;;;18.48;11.15;;;;;;;15.08;57.00;100293.34;6014892;23;20039;-81
2021/09/05 04:24:04;;;;;;;15.45;10.45;;;;;;;15.07;56.52;100296.09;6015201;23;20023;-81
2021/09/05 04:26:30;;;;;;;16.88;10.57;;;;;;;15.04;56.31;100291.84;6014963;23;20029;-81
2021/09/05 04:28:59;;;;;;;16.95;11.30;;;;;;;15.00;57.11;100292.13;6014815;23;20029;-81
2021/09/05 04:31:26;;;;;;;16.30;11.15;;;;;;;14.98;56.68;100293.09;6040258;23;20031;-81
2021/09/05 04:33:52;;;;;;;16.30;11.00;;;;;;;14.95;56.56;100301.25;6014819;23;20079;-81
2021/09/05 04:36:29;;;;;;;14.88;11.18;;;;;;;14.88;57.70;100305.25;6015521;23;20023;-81
2021/09/05 04:38:56;;;;;;;18.33;11.45;;;;;;;14.88;56.82;100307.06;6014975;23;20038;-81
2021/09/05 04:41:23;;;;;;;17.23;11.05;;;;;;;14.84;57.11;100309.06;6015141;23;20023;-81
2021/09/05 04:43:49;;;;;;;19.88;11.10;;;;;;;14.81;56.89;100311.91;6014531;23;20027;-81
2021/09/05 04:46:16;;;;;;;19.15;12.52;;;;;;;14.77;56.99;100311.25;6015723;23;20031;-81
2021/09/05 04:48:46;;;;;;;19.05;11.48;;;;;;;14.71;57.60;100312.50;6015358;23;20032;-81
2021/09/05 04:51:12;;;;;;;16.80;11.15;;;;;;;14.70;57.09;100325.84;6015148;23;20019;-81
2021/09/05 04:53:40;;;;;;;16.40;11.02;;;;;;;14.64;57.36;100327.09;6014860;23;20031;-81
2021/09/05 04:56:06;;;;;;;16.13;11.57;;;;;;;14.59;57.22;100330.03;6015002;23;20038;-81
2021/09/05 04:58:34;;;;;;;16.98;12.00;;;;;;;14.56;57.39;100329.38;6015094;23;20029;-81
2021/09/05 05:01:01;;;;;;;18.08;11.43;;;;;;;14.52;57.29;100326.09;6014788;23;20023;-81
2021/09/05 05:03:28;;;;;;;17.73;12.00;;;;;;;14.50;57.54;100335.91;6015314;23;20534;-81
2021/09/05 05:06:15;;;;;;;17.73;10.93;;;;;;;14.48;57.66;100342.28;6019241;23;20347;-81
2021/09/05 05:08:47;;;;;;;19.95;12.10;;;;;;;14.42;58.64;100347.03;6014992;23;20030;-81
2021/09/05 05:11:16;;;;;;;16.98;11.88;;;;;;;14.45;57.61;100344.19;6015376;23;20319;-81
2021/09/05 05:13:46;;;;;;;18.33;11.88;;;;;;;14.41;58.33;100340.03;6014880;23;20027;-81
2021/09/05 05:16:12;;;;;;;19.25;12.15;;;;;;;14.41;57.77;100347.97;6014761;23;20032;-81
2021/09/05 05:18:43;;;;;;;17.77;12.07;;;;;;;14.38;58.36;100349.94;6014994;23;20086;-81
2021/09/05 05:21:10;;;;;;;18.05;11.57;;;;;;;14.37;57.79;100342.97;6014534;23;20026;-81
2021/09/05 05:23:42;;;;;;;17.13;12.35;;;;;;;14.32;58.88;100349.41;6039757;23;20111;-81
2021/09/05 05:26:09;;;;;;;22.17;12.80;;;;;;;14.32;58.14;100353.84;6039478;23;20023;-81
2021/09/05 05:28:36;;;;;;;17.60;12.05;;;;;;;14.29;58.38;100346.97;6015053;23;20023;-81
2021/09/05 05:31:14;;;;;;;16.80;11.27;;;;;;;14.26;59.48;100348.94;6015185;23;20032;-81
2021/09/05 05:33:40;;;;;;;20.83;12.52;;;;;;;14.29;58.86;100354.91;6014978;23;20027;-81
2021/09/05 05:36:07;;;;;;;18.33;12.25;;;;;;;14.30;58.73;100353.09;6014767;23;20023;-81
2021/09/05 05:38:40;;;;;;;17.08;12.32;;;;;;;14.30;59.75;100355.75;6015000;23;20027;-82
2021/09/05 05:41:07;;;;;;;24.00;12.70;;;;;;;14.33;58.97;100352.91;6015197;23;20082;-82
2021/09/05 05:44:02;;;;;;;19.27;11.73;;;;;;;14.30;59.92;100350.44;6014730;23;20030;-83
2021/09/05 05:46:41;;;;;;;17.13;11.38;;;;;;;14.32;59.84;100352.03;6015010;23;20028;-83
2021/09/05 05:49:08;;;;;;;16.05;11.70;;;;;;;14.39;58.98;100354.31;6014661;23;20033;-83
2021/09/05 05:51:35;;;;;;;18.20;12.48;;;;;;;14.42;59.50;100359.41;6015965;23;20019;-84
2021/09/05 05:54:24;;;;;;;22.67;12.32;;;;;;;14.41;60.46;100357.72;6016094;23;20062;-83
2021/09/05 05:56:51;;;;;;;16.17;12.18;;;;;;;14.48;59.53;100358.16;6016319;23;20019;-83
2021/09/05 05:59:20;;;;;;;17.77;11.73;;;;;;;14.50;60.14;100359.75;6016294;23;20037;-83
2021/09/05 06:01:47;;;;;;;16.73;12.45;;;;;;;14.54;59.44;100368.38;6016597;23;20027;-83
2021/09/05 06:04:14;;;;;;;21.55;12.57;;;;;;;14.57;59.79;100363.72;6016134;23;20031;-83
2021/09/05 06:06:53;;;;;;;15.32;11.43;;;;;;;14.57;60.85;100357.56;6016542;23;20438;-83
2021/09/05 06:09:20;;;;;;;16.20;11.88;;;;;;;14.64;59.76;100361.53;6016494;23;20060;-82
2021/09/05 06:11:47;;;;;;;16.60;11.88;;;;;;;14.67;59.73;100360.47;6041441;23;20465;-83
2021/09/05 06:14:21;;;;;;;16.98;12.18;;;;;;;14.68;60.91;100362.16;6016280;23;20082;-82
2021/09/05 06:16:47;;;;;;;19.35;12.32;;;;;;;14.72;59.77;100372.50;6016114;23;20073;-83
2021/09/05 06:19:41;;;;;;;18.88;11.88;;;;;;;14.73;60.87;100365.41;6016383;23;20030;-83
2021/09/05 06:22:12;;;;;;;15.43;11.93;;;;;;;14.80;61.11;100374.66;6015923;23;20023;-83
2021/09/05 06:24:39;;;;;;;17.35;11.70;;;;;;;14.85;60.09;100377.03;6016108;23;20027;-83
2021/09/05 06:27:06;;;;;;;16.52;11.60;;;;;;;14.90;60.09;100376.72;6016037;23;20034;-82
2021/09/05 06:30:16;;;;;;;18.15;12.52;;;;;;;14.90;60.93;100380.22;6015984;23;20023;-83
2021/09/05 06:32:43;;;;;;;17.02;11.43;;;;;;;15.00;60.09;100371.66;6016561;23;20465;-82
2021/09/05 06:35:10;;;;;;;17.05;11.50;;;;;;;15.04;60.11;100381.13;6016427;23;20515;-83
2021/09/05 06:37:37;;;;;;;15.95;10.98;;;;;;;15.08;60.14;100382.63;6016443;23;20355;-83
2021/09/05 06:40:12;;;;;;;15.70;11.27;;;;;;;15.11;60.98;100377.13;6016356;23;20461;-83
2021/09/05 06:42:39;;;;;;;16.02;11.32;;;;;;;15.19;60.17;100374.81;6016559;23;20362;-83
2021/09/05 06:45:06;;;;;;;14.75;11.00;;;;;;;15.24;60.00;100379.78;6015605;23;20106;-82
2021/09/05 06:47:59;;;;;;;17.65;10.82;;;;;;;15.24;60.42;100378.00;6016468;23;20435;-82
2021/09/05 06:50:25;;;;;;;14.88;10.75;;;;;;;15.35;59.93;100379.06;6016172;23;20027;-82
2021/09/05 06:52:52;;;;;;;17.60;11.18;;;;;;;15.37;59.90;100367.41;6016050;23;20019;-83
2021/09/05 06:55:31;;;;;;;17.42;11.25;;;;;;;15.40;60.61;100370.81;6015495;23;20027;-82
2021/09/05 06:57:58;;;;;;;18.90;11.07;;;;;;;15.48;59.86;100373.81;6015889;23;20102;-83
2021/09/05 07:00:24;;;;;;;18.60;11.57;;;;;;;15.53;59.88;100373.47;6015777;23;20047;-82
2021/09/05 07:02:58;;;;;;;14.30;10.35;;;;;;;15.54;60.32;100381.34;6040384;23;20333;-82
2021/09/05 07:05:25;;;;;;;15.82;10.70;;;;;;;15.61;59.91;100376.44;6015953;23;20447;-83
2021/09/05 07:07:52;;;;;;;20.67;11.00;;;;;;;15.67;60.13;100384.00;6015928;23;20031;-83
2021/09/05 07:10:20;;;;;;;14.85;10.70;;;;;;;15.71;60.10;100389.94;6015526;23;20033;-83
2021/09/05 07:12:47;;;;;;;17.95;11.52;;;;;;;15.76;59.82;100382.50;6016289;23;20027;-83
2021/09/05 07:15:14;;;;;;;17.10;11.43;;;;;;;15.82;59.87;100386.56;6015909;23;20368;-83
2021/09/05 07:17:49;;;;;;;14.27;10.73;;;;;;;15.85;60.32;100392.50;6015625;23;20079;-83
2021/09/05 07:20:16;;;;;;;15.13;11.13;;;;;;;15.93;60.05;100391.97;6015839;23;20030;-83
2021/09/05 07:22:43;;;;;;;16.40;11.05;;;;;;;15.99;59.90;100393.38;6015358;23;20028;-83
2021/09/05 07:25:10;;;;;;;16.70;10.85;;;;;;;16.03;59.82;100400.16;6015588;23;20031;-83
2021/09/05 07:27:37;;;;;;;18.88;11.70;;;;;;;16.08;59.61;100399.84;6015506;23;20031;-83
2021/09/05 07:33:44;;;;;;;19.98;10.70;;;;;;;16.20;59.46;100406.97;6040193;23;20018;-83
2021/09/05 07:36:14;;;;;;;14.52;10.88;;;;;;;16.23;59.60;100412.03;6015807;23;20096;-83
2021/09/05 07:42:04;;;;;;;17.43;11.37;;;;;;;16.33;59.64;100411.41;6040474;23;20023;-83
2021/09/05 07:44:31;;;;;;;17.58;11.70;;;;;;;16.37;59.73;100416.38;6015516;23;20053;-83
2021/09/05 07:47:03;;;;;;;14.93;11.07;;;;;;;16.41;60.36;100409.06;6015308;23;20063;-83
2021/09/05 07:49:30;;;;;;;18.35;10.95;;;;;;;16.49;59.97;100417.31;6015754;23;20098;-83
2021/09/05 07:51:57;;;;;;;17.40;11.48;;;;;;;16.57;60.13;100418.56;6040050;23;20020;-83
2021/09/05 07:54:23;;;;;;;15.57;11.48;;;;;;;16.63;60.06;100423.47;6039766;23;20034;-83
2021/09/05 07:56:50;;;;;;;15.52;11.00;;;;;;;16.70;59.96;100418.56;6015516;23;20023;-83
2021/09/05 07:59:51;;;;;;;16.85;10.68;;;;;;;16.73;60.37;100420.97;6015206;23;20030;-83
2021/09/05 08:02:17;;;;;;;16.77;10.88;;;;;;;16.85;60.08;100427.22;6012046;23;20019;-83
2021/09/05 08:04:44;;;;;;;18.92;11.68;;;;;;;16.91;60.13;100424.97;6014939;23;20098;-83
2021/09/05 08:08:01;;;;;;;15.93;11.13;;;;;;;16.96;60.54;100421.97;6015257;23;20054;-83
2021/09/05 08:10:28;;;;;;;14.70;10.00;;;;;;;17.09;59.93;100418.44;6014940;23;20027;-83
2021/09/05 08:13:34;;;;;;;14.18;10.95;;;;;;;17.14;60.57;100426.91;6015166;23;20023;-83
2021/09/05 08:16:01;;;;;;;14.45;10.32;;;;;;;17.27;59.82;100424.19;6015056;23;20023;-83
2021/09/05 08:18:33;;;;;;;15.25;10.38;;;;;;;17.34;60.47;100430.75;6010976;23;20034;-83
2021/09/05 08:21:14;;;;;;;17.58;11.18;;;;;;;17.39;60.08;100430.41;6015306;23;20023;-83
2021/09/05 08:23:42;;;;;;;13.60;10.35;;;;;;;17.53;59.60;100435.53;6014709;23;20023;-83
2021/09/05 08:26:11;;;;;;;15.77;10.30;;;;;;;17.61;59.29;100428.78;6015401;23;20023;-83
2021/09/05 08:29:02;;;;;;;14.45;10.05;;;;;;;17.66;59.43;100424.81;6015122;23;20100;-82
2021/09/05 08:31:29;;;;;;;16.20;9.70;;;;;;;17.80;59.31;100436.22;6015033;23;20029;-83
2021/09/05 08:33:57;;;;;;;11.48;9.32;;;;;;;17.89;59.28;100437.31;6014413;23;20026;-83
2021/09/05 08:36:23;;;;;;;12.27;9.02;;;;;;;17.98;58.98;100436.59;6015079;23;20127;-83
2021/09/05 08:39:10;;;;;;;12.52;8.88;;;;;;;18.03;59.31;100445.09;6014839;23;20023;-82
2021/09/05 08:41:37;;;;;;;14.95;9.57;;;;;;;18.18;59.11;100442.22;6014881;23;20020;-83
2021/09/05 08:44:04;;;;;;;14.65;10.10;;;;;;;18.28;59.22;100442.34;6014281;23;20030;-83
2021/09/05 08:47:05;;;;;;;12.25;9.38;;;;;;;18.34;59.19;100456.03;6015339;23;20094;-83
2021/09/05 08:49:36;;;;;;;14.57;9.82;;;;;;;18.49;58.98;100453.97;6015185;23;20026;-82
2021/09/05 08:52:05;;;;;;;13.93;10.10;;;;;;;18.60;58.73;100455.78;6015292;23;20094;-83
2021/09/05 08:54:32;;;;;;;14.20;9.73;;;;;;;18.70;58.88;100463.03;6014270;23;20023;-83
2021/09/05 08:57:02;;;;;;;15.40;8.82;;;;;;;18.79;58.59;100462.31;6014792;23;20031;-83
2021/09/05 08:59:29;;;;;;;12.95;9.20;;;;;;;18.90;58.71;100458.75;6014874;23;20041;-83
2021/09/05 09:02:01;;;;;;;12.48;8.75;;;;;;;18.97;58.29;100462.63;6015038;23;20096;-82
2021/09/05 09:04:39;;;;;;;12.60;9.55;;;;;;;19.08;58.20;100459.13;6014834;23;20098;-82
2021/09/05 09:07:11;;;;;;;14.32;8.80;;;;;;;19.20;57.65;100469.75;6038145;23;20023;-82
2021/09/05 09:09:55;;;;;;;14.32;9.70;;;;;;;19.28;58.17;100464.63;6014904;23;20023;-83
2021/09/05 09:12:50;;;;;;;13.07;9.00;;;;;;;19.38;57.28;100462.91;6015274;23;20098;-83
2021/09/05 09:15:28;;;;;;;10.38;7.95;;;;;;;19.52;56.65;100460.91;5999197;23;20031;-83
2021/09/05 09:17:58;;;;;;;11.95;8.35;;;;;;;19.64;56.88;100465.22;6038950;23;20031;-83
2021/09/05 09:20:37;;;;;;;12.82;8.60;;;;;;;19.72;57.16;100461.03;6015191;23;20023;-82
2021/09/05 09:23:19;;;;;;;11.43;8.38;;;;;;;19.84;56.81;100464.50;6014748;23;20100;-82
2021/09/05 09:26:09;;;;;;;11.65;8.35;;;;;;;19.97;56.64;100464.28;6014624;23;20062;-83
2021/09/05 09:28:43;;;;;;;11.65;7.80;;;;;;;20.11;56.01;100469.31;6016700;23;20102;-82
2021/09/05 09:31:45;;;;;;;11.65;7.50;;;;;;;20.20;55.80;100473.03;6016717;23;20469;-82
2021/09/05 09:34:20;;;;;;;11.25;7.50;;;;;;;20.33;55.19;100467.44;6016418;23;20122;-82
2021/09/05 09:36:55;;;;;;;9.68;6.82;;;;;;;20.43;55.20;100468.34;6040266;23;20023;-82
2021/09/05 09:39:59;;;;;;;10.15;6.90;;;;;;;20.53;55.82;100467.53;5955179;24;20486;-82
2021/09/05 09:42:38;;;;;;;12.13;7.78;;;;;;;20.67;55.12;100469.00;5931816;24;20025;-82
2021/09/05 09:45:17;;;;;;;9.35;7.20;;;;;;;20.79;54.73;100470.56;5954272;24;20107;-82
2021/09/05 09:47:50;;;;;;;12.10;7.57;;;;;;;20.92;54.72;100473.03;5954501;24;20491;-82
2021/09/05 09:50:30;;;;;;;10.52;7.10;;;;;;;21.00;54.81;100472.34;5954720;24;20445;-82
2021/09/05 09:52:57;;;;;;;9.50;7.35;;;;;;;21.13;54.34;100461.38;5954509;24;20025;-82
2021/09/05 09:55:24;;;;;;;11.98;7.82;;;;;;;21.24;54.23;100473.78;5953954;24;20025;-82
2021/09/05 09:57:51;;;;;;;10.30;7.38;;;;;;;21.33;54.44;100464.06;5985298;23;20031;-82
2021/09/05 10:00:20;;;;;;;13.73;7.60;;;;;;;21.45;53.87;100467.44;6016249;23;20023;-82
2021/09/05 10:02:48;;;;;;;11.38;7.93;;;;;;;21.57;53.09;100463.63;6016498;23;20023;-82
2021/09/05 10:05:24;;;;;;;12.10;8.07;;;;;;;21.67;53.96;100460.06;6016217;23;20038;-82
2021/09/05 10:08:08;;;;;;;12.73;8.45;;;;;;;21.78;53.29;100467.16;6016622;23;20023;-82
2021/09/05 10:10:35;;;;;;;13.48;7.85;;;;;;;21.93;52.85;100472.91;6039992;23;20388;-82
2021/09/05 10:13:02;;;;;;;12.48;7.95;;;;;;;22.02;52.53;100466.69;6016675;23;20106;-82
2021/09/05 10:15:29;;;;;;;12.32;8.05;;;;;;;22.12;51.91;100464.81;6039234;23;20023;-83
2021/09/05 10:17:57;;;;;;;9.73;7.53;;;;;;;22.21;51.46;100463.09;6016527;23;20031;-83
2021/09/05 10:20:26;;;;;;;8.25;7.15;;;;;;;22.28;50.90;100460.69;6039840;23;20019;-83
2021/09/05 10:22:53;;;;;;;17.52;7.20;;;;;;;22.37;51.21;100465.16;6039462;23;20023;-83
2021/09/05 10:25:51;;;;;;;11.57;7.35;;;;;;;22.43;50.95;100466.38;6015800;23;20105;-82
2021/09/05 10:28:53;;;;;;;9.13;7.05;;;;;;;22.57;51.41;100469.63;6016290;23;20019;-82
2021/09/05 10:31:25;;;;;;;10.73;7.38;;;;;;;22.70;51.78;100459.38;6016798;23;20035;-83
2021/09/05 10:33:53;;;;;;;14.85;7.13;;;;;;;22.85;51.19;100459.72;6039135;23;20026;-82
2021/09/05 10:36:23;;;;;;;10.23;7.53;;;;;;;22.98;51.59;100463.84;6015964;23;20702;-83
2021/09/05 10:38:51;;;;;;;14.23;8.50;;;;;;;23.14;52.01;100465.88;6040081;23;20110;-82
2021/09/05 10:41:20;;;;;;;9.15;6.78;;;;;;;23.27;51.72;100460.13;6015639;23;20024;-82
2021/09/05 10:44:39;;;;;;;9.40;6.90;;;;;;;23.39;51.27;100461.63;6016260;23;20498;-83
2021/09/05 10:47:05;;;;;;;10.10;6.25;;;;;;;23.62;50.13;100460.28;6016670;23;20023;-83
2021/09/05 10:49:40;;;;;;;9.07;6.50;;;;;;;23.73;49.08;100457.34;6016986;23;20327;-82
2021/09/05 10:52:12;;;;;;;8.75;6.20;;;;;;;23.88;48.26;100451.41;6039716;23;20027;-83
2021/09/05 10:54:50;;;;;;;12.05;6.72;;;;;;;24.00;48.39;100451.97;6015419;23;20023;-83
2021/09/05 10:57:41;;;;;;;11.07;6.47;;;;;;;24.11;48.06;100451.72;6016179;23;20395;-82
2021/09/05 11:00:09;;;;;;;8.43;5.85;;;;;;;24.29;48.24;100456.22;6016454;23;20019;-83
2021/09/05 11:03:08;;;;;;;14.38;6.28;;;;;;;24.45;47.50;100456.25;6015993;23;20099;-82
2021/09/05 11:05:37;;;;;;;10.65;6.18;;;;;;;24.73;48.52;100457.88;6015486;23;20344;-82
2021/09/05 11:08:24;;;;;;;11.05;6.13;;;;;;;25.07;49.40;100450.75;6015854;23;20109;-83
2021/09/05 11:11:42;;;;;;;7.25;5.40;;;;;;;25.63;48.19;100448.28;6040095;23;20350;-83
2021/09/05 11:14:13;;;;;;;8.18;5.78;;;;;;;26.39;48.87;100449.78;6016187;23;20034;-82
2021/09/05 11:16:46;;;;;;;8.13;5.18;;;;;;;27.03;46.15;100452.53;6016445;23;20035;-82
2021/09/05 11:19:19;;;;;;;8.63;5.93;;;;;;;27.70;44.26;100451.00;6040641;23;20023;-82
2021/09/05 11:21:46;;;;;;;6.75;5.45;;;;;;;28.35;44.63;100449.66;6038727;23;20023;-82
2021/09/05 11:24:14;;;;;;;9.77;4.95;;;;;;;28.96;43.31;100448.50;6038865;23;20027;-82
2021/09/05 11:27:12;;;;;;;6.40;5.15;;;;;;;29.57;42.88;100449.09;6016647;23;20030;-81
2021/09/05 11:29:44;;;;;;;6.30;5.03;;;;;;;30.20;40.90;100450.13;6015978;23;20038;-81
2021/09/05 11:32:12;;;;;;;5.40;4.57;;;;;;;30.70;40.65;100454.53;6015459;23;20070;-82
2021/09/05 11:34:57;;;;;;;9.15;5.20;;;;;;;31.14;39.54;100456.94;6039030;23;20510;-81
2021/09/05 11:37:33;;;;;;;8.43;5.50;;;;;;;31.58;37.62;100454.72;6038641;23;20023;-82
2021/09/05 11:40:15;;;;;;;6.15;4.97;;;;;;;31.97;38.69;100446.72;6038785;23;20074;-82
2021/09/05 11:42:56;;;;;;;5.72;4.78;;;;;;;32.41;38.27;100451.59;6015393;23;20102;-82
2021/09/05 11:45:25;;;;;;;5.68;4.78;;;;;;;32.79;37.66;100456.25;6015782;23;20105;-81
2021/09/05 11:48:00;;;;;;;5.80;4.55;;;;;;;33.10;35.07;100453.78;6040767;23;20032;-81